sensor_id;sensor_type;location;lat;lon;timestamp;temperature;humidity
8002;DHT22;4046;48.774;8.732;2022-11-15T00:00:53;22.80;99.90
8002;DHT22;4046;48.774;8.732;2022-11-15T00:03:25;22.80;99.90
8002;DHT22;4046;48.774;8.732;2022-11-15T00:05:51;22.80;99.90
8002;DHT22;4046;48.774;8.732;2022-11-15T00:08:18;22.80;99.90
8002;DHT22;4046;48.774;8.732;2022-11-15T00:11:00;22.80;99.90
8002;DHT22;4046;48.774;8.732;2022-11-15T00:13:27;22.80;99.90
8002;DHT22;4046;48.774;8.732;2022-11-15T00:15:57;22.80;99.90
8002;DHT22;4046;48.774;8.732;2022-11-15T00:18:24;22.80;99.90
8002;DHT22;4046;48.774;8.732;2022-11-15T00:20:50;22.80;99.90
8002;DHT22;4046;48.774;8.732;2022-11-15T00:23:16;22.80;99.90
8002;DHT22;4046;48.774;8.732;2022-11-15T00:25:43;22.80;99.90
8002;DHT22;4046;48.774;8.732;2022-11-15T00:28:09;22.80;99.90
8002;DHT22;4046;48.774;8.732;2022-11-15T00:30:35;22.80;99.90
8002;DHT22;4046;48.774;8.732;2022-11-15T00:33:05;22.80;99.90
8002;DHT22;4046;48.774;8.732;2022-11-15T00:35:32;22.80;99.90
8002;DHT22;4046;48.774;8.732;2022-11-15T00:37:59;22.80;99.90
8002;DHT22;4046;48.774;8.732;2022-11-15T00:40:25;22.80;99.90
8002;DHT22;4046;48.774;8.732;2022-11-15T00:42:52;22.70;99.90
8002;DHT22;4046;48.774;8.732;2022-11-15T00:45:18;22.80;99.90
8002;DHT22;4046;48.774;8.732;2022-11-15T00:47:45;22.80;99.90
8002;DHT22;4046;48.774;8.732;2022-11-15T00:50:12;22.80;99.90
8002;DHT22;4046;48.774;8.732;2022-11-15T00:52:39;22.80;99.90
8002;DHT22;4046;48.774;8.732;2022-11-15T00:55:05;22.80;99.90
8002;DHT22;4046;48.774;8.732;2022-11-15T00:57:31;22.70;99.90
8002;DHT22;4046;48.774;8.732;2022-11-15T00:59:58;22.70;99.90
8002;DHT22;4046;48.774;8.732;2022-11-15T01:02:24;22.80;99.90
8002;DHT22;4046;48.774;8.732;2022-11-15T01:04:50;22.80;99.90
8002;DHT22;4046;48.774;8.732;2022-11-15T01:07:16;22.80;99.90
8002;DHT22;4046;48.774;8.732;2022-11-15T01:09:42;22.80;99.90
8002;DHT22;4046;48.774;8.732;2022-11-15T01:12:09;22.80;99.90
8002;DHT22;4046;48.774;8.732;2022-11-15T01:14:35;22.80;99.90
8002;DHT22;4046;48.774;8.732;2022-11-15T01:17:01;22.80;99.90
8002;DHT22;4046;48.774;8.732;2022-11-15T01:19:27;22.80;99.90
8002;DHT22;4046;48.774;8.732;2022-11-15T01:21:53;22.80;99.90
8002;DHT22;4046;48.774;8.732;2022-11-15T01:24:19;22.80;99.90
8002;DHT22;4046;48.774;8.732;2022-11-15T01:26:46;22.80;99.90
8002;DHT22;4046;48.774;8.732;2022-11-15T01:29:12;22.80;99.90
8002;DHT22;4046;48.774;8.732;2022-11-15T01:31:38;22.80;99.90
8002;DHT22;4046;48.774;8.732;2022-11-15T01:34:04;22.70;99.90
8002;DHT22;4046;48.774;8.732;2022-11-15T01:36:31;22.80;99.90
8002;DHT22;4046;48.774;8.732;2022-11-15T01:38:58;22.80;99.90
8002;DHT22;4046;48.774;8.732;2022-11-15T01:41:30;22.80;99.90
8002;DHT22;4046;48.774;8.732;2022-11-15T01:46:46;22.80;99.90
8002;DHT22;4046;48.774;8.732;2022-11-15T01:49:16;22.80;99.90
8002;DHT22;4046;48.774;8.732;2022-11-15T01:51:44;22.70;99.90
8002;DHT22;4046;48.774;8.732;2022-11-15T01:54:14;22.80;99.90
8002;DHT22;4046;48.774;8.732;2022-11-15T01:56:50;22.70;99.90
8002;DHT22;4046;48.774;8.732;2022-11-15T01:59:18;22.80;99.90
8002;DHT22;4046;48.774;8.732;2022-11-15T02:01:45;22.80;99.90
8002;DHT22;4046;48.774;8.732;2022-11-15T02:04:13;22.80;99.90
8002;DHT22;4046;48.774;8.732;2022-11-15T02:06:41;22.70;99.90
8002;DHT22;4046;48.774;8.732;2022-11-15T02:09:08;22.80;99.90
8002;DHT22;4046;48.774;8.732;2022-11-15T02:11:36;22.80;99.90
8002;DHT22;4046;48.774;8.732;2022-11-15T02:14:03;22.80;99.90
8002;DHT22;4046;48.774;8.732;2022-11-15T02:24:56;22.80;99.90
8002;DHT22;4046;48.774;8.732;2022-11-15T02:27:59;22.80;99.90
8002;DHT22;4046;48.774;8.732;2022-11-15T02:30:44;22.80;99.90
8002;DHT22;4046;48.774;8.732;2022-11-15T02:33:26;22.80;99.90
8002;DHT22;4046;48.774;8.732;2022-11-15T02:41:21;22.70;99.90
8002;DHT22;4046;48.774;8.732;2022-11-15T02:44:04;22.80;99.90
8002;DHT22;4046;48.774;8.732;2022-11-15T02:46:40;22.80;99.90
8002;DHT22;4046;48.774;8.732;2022-11-15T02:49:28;22.80;99.90
8002;DHT22;4046;48.774;8.732;2022-11-15T02:51:55;22.70;99.90
8002;DHT22;4046;48.774;8.732;2022-11-15T02:54:23;22.70;99.90
8002;DHT22;4046;48.774;8.732;2022-11-15T02:56:53;22.80;99.90
8002;DHT22;4046;48.774;8.732;2022-11-15T03:00:14;22.80;99.90
8002;DHT22;4046;48.774;8.732;2022-11-15T03:02:32;22.80;99.90
8002;DHT22;4046;48.774;8.732;2022-11-15T03:05:17;22.70;99.90
8002;DHT22;4046;48.774;8.732;2022-11-15T03:08:00;22.70;99.90
8002;DHT22;4046;48.774;8.732;2022-11-15T03:13:21;22.80;99.90
8002;DHT22;4046;48.774;8.732;2022-11-15T03:16:08;22.80;99.90
8002;DHT22;4046;48.774;8.732;2022-11-15T03:18:42;22.80;99.90
8002;DHT22;4046;48.774;8.732;2022-11-15T03:21:10;22.80;99.90
8002;DHT22;4046;48.774;8.732;2022-11-15T03:23:39;22.70;99.90
8002;DHT22;4046;48.774;8.732;2022-11-15T03:26:09;22.80;99.90
8002;DHT22;4046;48.774;8.732;2022-11-15T03:28:57;22.80;99.90
8002;DHT22;4046;48.774;8.732;2022-11-15T03:31:28;22.80;99.90
8002;DHT22;4046;48.774;8.732;2022-11-15T03:34:21;22.80;99.90
8002;DHT22;4046;48.774;8.732;2022-11-15T03:36:49;22.70;99.90
8002;DHT22;4046;48.774;8.732;2022-11-15T03:39:16;22.70;99.90
8002;DHT22;4046;48.774;8.732;2022-11-15T03:41:48;22.80;99.90
8002;DHT22;4046;48.774;8.732;2022-11-15T03:44:49;22.80;99.90
8002;DHT22;4046;48.774;8.732;2022-11-15T03:47:26;22.80;99.90
8002;DHT22;4046;48.774;8.732;2022-11-15T03:49:57;22.80;99.90
8002;DHT22;4046;48.774;8.732;2022-11-15T03:52:24;22.80;99.90
8002;DHT22;4046;48.774;8.732;2022-11-15T03:54:55;22.70;99.90
8002;DHT22;4046;48.774;8.732;2022-11-15T03:57:21;22.80;99.90
8002;DHT22;4046;48.774;8.732;2022-11-15T03:59:48;22.70;99.90
8002;DHT22;4046;48.774;8.732;2022-11-15T04:02:14;22.70;99.90
8002;DHT22;4046;48.774;8.732;2022-11-15T04:04:40;22.80;99.90
8002;DHT22;4046;48.774;8.732;2022-11-15T04:07:06;22.80;99.90
8002;DHT22;4046;48.774;8.732;2022-11-15T04:09:32;22.80;99.90
8002;DHT22;4046;48.774;8.732;2022-11-15T04:11:59;22.80;99.90
8002;DHT22;4046;48.774;8.732;2022-11-15T04:14:25;22.80;99.90
8002;DHT22;4046;48.774;8.732;2022-11-15T04:16:52;22.80;99.90
8002;DHT22;4046;48.774;8.732;2022-11-15T04:19:18;22.70;99.90
8002;DHT22;4046;48.774;8.732;2022-11-15T04:22:03;22.80;99.90
8002;DHT22;4046;48.774;8.732;2022-11-15T04:24:53;22.80;99.90
8002;DHT22;4046;48.774;8.732;2022-11-15T04:27:19;22.80;99.90
8002;DHT22;4046;48.774;8.732;2022-11-15T04:29:45;22.70;99.90
8002;DHT22;4046;48.774;8.732;2022-11-15T04:32:11;22.80;99.90
8002;DHT22;4046;48.774;8.732;2022-11-15T04:34:37;22.70;99.90
8002;DHT22;4046;48.774;8.732;2022-11-15T04:37:04;22.70;99.90
8002;DHT22;4046;48.774;8.732;2022-11-15T04:39:40;22.80;99.90
8002;DHT22;4046;48.774;8.732;2022-11-15T04:42:06;22.80;99.90
8002;DHT22;4046;48.774;8.732;2022-11-15T04:44:32;22.80;99.90
8002;DHT22;4046;48.774;8.732;2022-11-15T04:46:59;22.80;99.90
8002;DHT22;4046;48.774;8.732;2022-11-15T04:49:25;22.80;99.90
8002;DHT22;4046;48.774;8.732;2022-11-15T04:51:51;22.80;99.90
8002;DHT22;4046;48.774;8.732;2022-11-15T04:54:17;22.80;99.90
8002;DHT22;4046;48.774;8.732;2022-11-15T04:56:43;22.80;99.90
8002;DHT22;4046;48.774;8.732;2022-11-15T04:59:10;22.80;99.90
8002;DHT22;4046;48.774;8.732;2022-11-15T05:01:36;22.80;99.90
8002;DHT22;4046;48.774;8.732;2022-11-15T05:04:02;22.80;99.90
8002;DHT22;4046;48.774;8.732;2022-11-15T05:06:51;22.80;99.90
8002;DHT22;4046;48.774;8.732;2022-11-15T05:09:20;22.80;99.90
8002;DHT22;4046;48.774;8.732;2022-11-15T05:11:47;22.70;99.90
8002;DHT22;4046;48.774;8.732;2022-11-15T05:14:13;22.80;99.90
8002;DHT22;4046;48.774;8.732;2022-11-15T05:16:39;22.80;99.90
8002;DHT22;4046;48.774;8.732;2022-11-15T05:19:06;22.80;99.90
8002;DHT22;4046;48.774;8.732;2022-11-15T05:21:33;22.70;99.90
8002;DHT22;4046;48.774;8.732;2022-11-15T05:23:59;22.80;99.90
8002;DHT22;4046;48.774;8.732;2022-11-15T05:26:26;22.70;99.90
8002;DHT22;4046;48.774;8.732;2022-11-15T05:28:53;22.70;99.90
8002;DHT22;4046;48.774;8.732;2022-11-15T05:31:20;22.80;99.90
8002;DHT22;4046;48.774;8.732;2022-11-15T05:33:49;22.80;99.90
8002;DHT22;4046;48.774;8.732;2022-11-15T05:36:31;22.70;99.90
8002;DHT22;4046;48.774;8.732;2022-11-15T05:38:57;22.80;99.90
8002;DHT22;4046;48.774;8.732;2022-11-15T05:41:31;22.70;99.90
8002;DHT22;4046;48.774;8.732;2022-11-15T05:43:59;22.80;99.90
8002;DHT22;4046;48.774;8.732;2022-11-15T05:46:27;22.80;99.90
8002;DHT22;4046;48.774;8.732;2022-11-15T05:48:54;22.70;99.90
8002;DHT22;4046;48.774;8.732;2022-11-15T05:51:22;22.80;99.90
8002;DHT22;4046;48.774;8.732;2022-11-15T05:53:49;22.80;99.90
8002;DHT22;4046;48.774;8.732;2022-11-15T05:56:17;22.80;99.90
8002;DHT22;4046;48.774;8.732;2022-11-15T05:58:43;22.80;99.90
8002;DHT22;4046;48.774;8.732;2022-11-15T06:01:09;22.80;99.90
8002;DHT22;4046;48.774;8.732;2022-11-15T06:03:35;22.80;99.90
8002;DHT22;4046;48.774;8.732;2022-11-15T06:06:02;22.80;99.90
8002;DHT22;4046;48.774;8.732;2022-11-15T06:08:28;22.80;99.90
8002;DHT22;4046;48.774;8.732;2022-11-15T06:10:54;22.80;99.90
8002;DHT22;4046;48.774;8.732;2022-11-15T06:13:20;22.80;99.90
8002;DHT22;4046;48.774;8.732;2022-11-15T06:15:47;22.80;99.90
8002;DHT22;4046;48.774;8.732;2022-11-15T06:18:13;22.80;99.90
8002;DHT22;4046;48.774;8.732;2022-11-15T06:20:39;22.80;99.90
8002;DHT22;4046;48.774;8.732;2022-11-15T06:23:05;22.80;99.90
8002;DHT22;4046;48.774;8.732;2022-11-15T06:25:32;22.80;99.90
8002;DHT22;4046;48.774;8.732;2022-11-15T06:27:58;22.80;99.90
8002;DHT22;4046;48.774;8.732;2022-11-15T06:30:26;22.80;99.90
8002;DHT22;4046;48.774;8.732;2022-11-15T06:32:59;22.80;99.90
8002;DHT22;4046;48.774;8.732;2022-11-15T06:35:26;22.80;99.90
8002;DHT22;4046;48.774;8.732;2022-11-15T06:37:52;22.80;99.90
8002;DHT22;4046;48.774;8.732;2022-11-15T06:40:18;22.80;99.90
8002;DHT22;4046;48.774;8.732;2022-11-15T06:42:44;22.70;99.90
8002;DHT22;4046;48.774;8.732;2022-11-15T06:45:10;22.80;99.90
8002;DHT22;4046;48.774;8.732;2022-11-15T06:47:47;22.80;99.90
8002;DHT22;4046;48.774;8.732;2022-11-15T06:50:13;22.80;99.90
8002;DHT22;4046;48.774;8.732;2022-11-15T06:52:39;22.70;99.90
8002;DHT22;4046;48.774;8.732;2022-11-15T06:55:06;22.70;99.90
8002;DHT22;4046;48.774;8.732;2022-11-15T06:57:32;22.70;99.90
8002;DHT22;4046;48.774;8.732;2022-11-15T06:59:59;22.70;99.90
8002;DHT22;4046;48.774;8.732;2022-11-15T07:02:25;22.70;99.90
8002;DHT22;4046;48.774;8.732;2022-11-15T07:04:51;22.70;99.90
8002;DHT22;4046;48.774;8.732;2022-11-15T07:07:17;22.70;99.90
8002;DHT22;4046;48.774;8.732;2022-11-15T07:09:44;22.60;99.90
8002;DHT22;4046;48.774;8.732;2022-11-15T07:12:10;22.60;99.90
8002;DHT22;4046;48.774;8.732;2022-11-15T07:14:36;22.60;99.90
8002;DHT22;4046;48.774;8.732;2022-11-15T07:17:05;22.60;99.90
8002;DHT22;4046;48.774;8.732;2022-11-15T07:19:31;22.60;99.90
8002;DHT22;4046;48.774;8.732;2022-11-15T07:21:58;22.60;99.90
8002;DHT22;4046;48.774;8.732;2022-11-15T07:24:24;22.50;99.90
8002;DHT22;4046;48.774;8.732;2022-11-15T07:26:50;22.50;99.90
8002;DHT22;4046;48.774;8.732;2022-11-15T07:29:16;22.60;99.90
8002;DHT22;4046;48.774;8.732;2022-11-15T07:31:42;22.60;99.90
8002;DHT22;4046;48.774;8.732;2022-11-15T07:34:08;22.60;99.90
8002;DHT22;4046;48.774;8.732;2022-11-15T07:36:35;22.50;99.90
8002;DHT22;4046;48.774;8.732;2022-11-15T07:39:02;22.50;99.90
8002;DHT22;4046;48.774;8.732;2022-11-15T07:41:28;22.50;99.90
8002;DHT22;4046;48.774;8.732;2022-11-15T07:43:55;22.60;99.90
8002;DHT22;4046;48.774;8.732;2022-11-15T07:46:21;22.60;99.90
8002;DHT22;4046;48.774;8.732;2022-11-15T07:48:47;22.60;99.90
8002;DHT22;4046;48.774;8.732;2022-11-15T07:51:15;22.60;99.90
8002;DHT22;4046;48.774;8.732;2022-11-15T07:53:44;22.60;99.90
8002;DHT22;4046;48.774;8.732;2022-11-15T07:56:11;22.60;99.90
8002;DHT22;4046;48.774;8.732;2022-11-15T07:58:37;22.60;99.90
8002;DHT22;4046;48.774;8.732;2022-11-15T08:01:05;22.60;99.90
8002;DHT22;4046;48.774;8.732;2022-11-15T08:03:32;22.60;99.90
8002;DHT22;4046;48.774;8.732;2022-11-15T08:05:58;22.70;99.90
8002;DHT22;4046;48.774;8.732;2022-11-15T08:08:24;22.70;99.90
8002;DHT22;4046;48.774;8.732;2022-11-15T08:10:51;22.70;99.90
8002;DHT22;4046;48.774;8.732;2022-11-15T08:13:17;22.70;99.90
8002;DHT22;4046;48.774;8.732;2022-11-15T08:15:43;22.70;99.90
8002;DHT22;4046;48.774;8.732;2022-11-15T08:18:12;22.70;99.90
8002;DHT22;4046;48.774;8.732;2022-11-15T08:20:39;22.70;99.90
8002;DHT22;4046;48.774;8.732;2022-11-15T08:23:07;22.70;99.90
8002;DHT22;4046;48.774;8.732;2022-11-15T08:25:34;22.70;99.90
8002;DHT22;4046;48.774;8.732;2022-11-15T08:28:03;22.70;99.90
8002;DHT22;4046;48.774;8.732;2022-11-15T08:30:30;22.70;99.90
8002;DHT22;4046;48.774;8.732;2022-11-15T08:33:00;22.70;99.90
8002;DHT22;4046;48.774;8.732;2022-11-15T08:35:26;22.70;99.90
8002;DHT22;4046;48.774;8.732;2022-11-15T08:37:53;22.70;99.90
8002;DHT22;4046;48.774;8.732;2022-11-15T08:40:20;22.70;99.90
8002;DHT22;4046;48.774;8.732;2022-11-15T08:42:46;22.70;99.90
8002;DHT22;4046;48.774;8.732;2022-11-15T08:45:13;22.70;99.90
8002;DHT22;4046;48.774;8.732;2022-11-15T08:47:40;22.70;99.90
8002;DHT22;4046;48.774;8.732;2022-11-15T08:50:06;22.70;99.90
8002;DHT22;4046;48.774;8.732;2022-11-15T08:52:33;22.70;99.90
8002;DHT22;4046;48.774;8.732;2022-11-15T08:54:59;22.70;99.90
8002;DHT22;4046;48.774;8.732;2022-11-15T08:57:28;22.80;99.90
8002;DHT22;4046;48.774;8.732;2022-11-15T08:59:55;22.80;99.90
8002;DHT22;4046;48.774;8.732;2022-11-15T09:02:21;22.90;99.90
8002;DHT22;4046;48.774;8.732;2022-11-15T09:04:47;22.90;99.90
8002;DHT22;4046;48.774;8.732;2022-11-15T09:07:14;22.90;99.90
8002;DHT22;4046;48.774;8.732;2022-11-15T09:09:40;23.10;99.90
8002;DHT22;4046;48.774;8.732;2022-11-15T09:12:07;23.20;99.90
8002;DHT22;4046;48.774;8.732;2022-11-15T09:14:34;23.40;99.90
8002;DHT22;4046;48.774;8.732;2022-11-15T09:17:00;23.60;99.90
8002;DHT22;4046;48.774;8.732;2022-11-15T09:19:27;24.00;99.90
8002;DHT22;4046;48.774;8.732;2022-11-15T09:21:53;24.20;99.90
8002;DHT22;4046;48.774;8.732;2022-11-15T09:24:19;24.40;99.90
8002;DHT22;4046;48.774;8.732;2022-11-15T09:26:45;24.10;99.90
8002;DHT22;4046;48.774;8.732;2022-11-15T09:29:11;23.80;99.90
8002;DHT22;4046;48.774;8.732;2022-11-15T09:31:38;23.70;99.90
8002;DHT22;4046;48.774;8.732;2022-11-15T09:34:04;23.50;99.90
8002;DHT22;4046;48.774;8.732;2022-11-15T09:36:30;23.40;99.90
8002;DHT22;4046;48.774;8.732;2022-11-15T09:38:58;23.20;99.90
8002;DHT22;4046;48.774;8.732;2022-11-15T09:49:33;22.70;99.90
8002;DHT22;4046;48.774;8.732;2022-11-15T09:51:59;22.60;99.90
8002;DHT22;4046;48.774;8.732;2022-11-15T09:54:30;22.70;99.90
8002;DHT22;4046;48.774;8.732;2022-11-15T09:57:04;22.60;99.90
8002;DHT22;4046;48.774;8.732;2022-11-15T10:04:53;22.40;99.90
8002;DHT22;4046;48.774;8.732;2022-11-15T10:07:30;22.30;99.90
8002;DHT22;4046;48.774;8.732;2022-11-15T10:10:03;22.30;99.90
8002;DHT22;4046;48.774;8.732;2022-11-15T10:12:31;22.20;99.90
8002;DHT22;4046;48.774;8.732;2022-11-15T10:15:06;22.20;99.90
8002;DHT22;4046;48.774;8.732;2022-11-15T10:20:27;22.30;99.90
8002;DHT22;4046;48.774;8.732;2022-11-15T10:22:58;22.30;99.90
8002;DHT22;4046;48.774;8.732;2022-11-15T10:25:28;22.40;99.90
8002;DHT22;4046;48.774;8.732;2022-11-15T10:30:50;22.40;99.90
8002;DHT22;4046;48.774;8.732;2022-11-15T10:35:47;22.30;99.90
8002;DHT22;4046;48.774;8.732;2022-11-15T10:38:13;22.30;99.90
8002;DHT22;4046;48.774;8.732;2022-11-15T10:40:40;22.30;99.90
8002;DHT22;4046;48.774;8.732;2022-11-15T10:45:37;22.30;99.90
8002;DHT22;4046;48.774;8.732;2022-11-15T10:50:43;22.40;99.90
8002;DHT22;4046;48.774;8.732;2022-11-15T10:53:23;22.30;99.90
8002;DHT22;4046;48.774;8.732;2022-11-15T10:55:53;22.30;99.90
8002;DHT22;4046;48.774;8.732;2022-11-15T10:58:38;22.30;99.90
8002;DHT22;4046;48.774;8.732;2022-11-15T11:01:14;22.30;99.90
8002;DHT22;4046;48.774;8.732;2022-11-15T11:03:42;22.30;99.90
8002;DHT22;4046;48.774;8.732;2022-11-15T11:06:10;22.30;99.90
8002;DHT22;4046;48.774;8.732;2022-11-15T11:08:37;22.40;99.90
8002;DHT22;4046;48.774;8.732;2022-11-15T11:11:05;22.40;99.90
8002;DHT22;4046;48.774;8.732;2022-11-15T11:13:37;22.40;99.90
8002;DHT22;4046;48.774;8.732;2022-11-15T11:19:28;22.40;99.90
8002;DHT22;4046;48.774;8.732;2022-11-15T11:22:17;22.40;99.90
8002;DHT22;4046;48.774;8.732;2022-11-15T11:24:59;22.40;99.90
8002;DHT22;4046;48.774;8.732;2022-11-15T11:33:31;22.30;99.90
8002;DHT22;4046;48.774;8.732;2022-11-15T11:41:49;22.40;99.90
8002;DHT22;4046;48.774;8.732;2022-11-15T11:44:24;22.40;99.90
8002;DHT22;4046;48.774;8.732;2022-11-15T11:57:48;22.40;99.90
8002;DHT22;4046;48.774;8.732;2022-11-15T12:00:23;22.40;99.90
8002;DHT22;4046;48.774;8.732;2022-11-15T12:06:33;22.30;99.90
8002;DHT22;4046;48.774;8.732;2022-11-15T12:09:35;22.40;99.90
8002;DHT22;4046;48.774;8.732;2022-11-15T12:12:16;22.40;99.90
8002;DHT22;4046;48.774;8.732;2022-11-15T12:14:55;22.30;99.90
8002;DHT22;4046;48.774;8.732;2022-11-15T12:17:24;22.40;99.90
8002;DHT22;4046;48.774;8.732;2022-11-15T12:19:56;22.40;99.90
8002;DHT22;4046;48.774;8.732;2022-11-15T12:22:36;22.40;99.90
8002;DHT22;4046;48.774;8.732;2022-11-15T12:25:12;22.40;99.90
8002;DHT22;4046;48.774;8.732;2022-11-15T12:27:42;22.40;99.90
8002;DHT22;4046;48.774;8.732;2022-11-15T12:30:18;22.40;99.90
8002;DHT22;4046;48.774;8.732;2022-11-15T12:32:59;22.40;99.90
8002;DHT22;4046;48.774;8.732;2022-11-15T12:35:38;22.40;99.90
8002;DHT22;4046;48.774;8.732;2022-11-15T12:38:10;22.40;99.90
8002;DHT22;4046;48.774;8.732;2022-11-15T12:40:39;22.40;99.90
8002;DHT22;4046;48.774;8.732;2022-11-15T12:43:41;22.40;99.90
8002;DHT22;4046;48.774;8.732;2022-11-15T12:49:09;22.40;99.90
8002;DHT22;4046;48.774;8.732;2022-11-15T12:59:56;22.50;99.90
8002;DHT22;4046;48.774;8.732;2022-11-15T13:02:44;22.50;99.90
8002;DHT22;4046;48.774;8.732;2022-11-15T13:17:44;22.60;99.90
8002;DHT22;4046;48.774;8.732;2022-11-15T13:30:51;22.60;99.90
8002;DHT22;4046;48.774;8.732;2022-11-15T13:35:54;22.50;99.90
8002;DHT22;4046;48.774;8.732;2022-11-15T13:38:29;22.60;99.90
8002;DHT22;4046;48.774;8.732;2022-11-15T13:40:57;22.40;99.90
8002;DHT22;4046;48.774;8.732;2022-11-15T13:43:34;22.50;99.90
8002;DHT22;4046;48.774;8.732;2022-11-15T13:46:12;22.50;99.90
8002;DHT22;4046;48.774;8.732;2022-11-15T13:48:40;22.50;99.90
8002;DHT22;4046;48.774;8.732;2022-11-15T13:54:16;22.50;99.90
8002;DHT22;4046;48.774;8.732;2022-11-15T13:56:53;22.50;99.90
8002;DHT22;4046;48.774;8.732;2022-11-15T13:59:33;22.50;99.90
8002;DHT22;4046;48.774;8.732;2022-11-15T14:02:12;22.50;99.90
8002;DHT22;4046;48.774;8.732;2022-11-15T14:04:45;22.50;99.90
8002;DHT22;4046;48.774;8.732;2022-11-15T14:07:17;22.50;99.90
8002;DHT22;4046;48.774;8.732;2022-11-15T14:09:44;22.40;99.90
8002;DHT22;4046;48.774;8.732;2022-11-15T14:12:22;22.50;99.90
8002;DHT22;4046;48.774;8.732;2022-11-15T14:14:49;22.50;99.90
8002;DHT22;4046;48.774;8.732;2022-11-15T14:17:36;22.50;99.90
8002;DHT22;4046;48.774;8.732;2022-11-15T14:20:20;22.50;99.90
8002;DHT22;4046;48.774;8.732;2022-11-15T14:22:53;22.50;99.90
8002;DHT22;4046;48.774;8.732;2022-11-15T14:25:21;22.50;99.90
8002;DHT22;4046;48.774;8.732;2022-11-15T14:28:40;22.50;99.90
8002;DHT22;4046;48.774;8.732;2022-11-15T14:31:10;22.50;99.90
8002;DHT22;4046;48.774;8.732;2022-11-15T14:33:38;22.40;99.90
8002;DHT22;4046;48.774;8.732;2022-11-15T14:38:33;22.40;99.90
8002;DHT22;4046;48.774;8.732;2022-11-15T14:41:00;22.40;99.90
8002;DHT22;4046;48.774;8.732;2022-11-15T14:43:26;22.50;99.90
8002;DHT22;4046;48.774;8.732;2022-11-15T14:45:53;22.50;99.90
8002;DHT22;4046;48.774;8.732;2022-11-15T14:48:19;22.60;99.90
8002;DHT22;4046;48.774;8.732;2022-11-15T14:50:46;22.70;99.90
8002;DHT22;4046;48.774;8.732;2022-11-15T14:53:14;22.70;99.90
8002;DHT22;4046;48.774;8.732;2022-11-15T14:55:41;22.70;99.90
8002;DHT22;4046;48.774;8.732;2022-11-15T14:58:08;22.70;99.90
8002;DHT22;4046;48.774;8.732;2022-11-15T15:00:39;22.80;99.90
8002;DHT22;4046;48.774;8.732;2022-11-15T15:03:06;22.80;99.90
8002;DHT22;4046;48.774;8.732;2022-11-15T15:05:37;22.90;99.90
8002;DHT22;4046;48.774;8.732;2022-11-15T15:08:04;22.90;99.90
8002;DHT22;4046;48.774;8.732;2022-11-15T15:10:33;22.90;99.90
8002;DHT22;4046;48.774;8.732;2022-11-15T15:12:59;22.90;99.90
8002;DHT22;4046;48.774;8.732;2022-11-15T15:15:34;23.00;99.90
8002;DHT22;4046;48.774;8.732;2022-11-15T15:18:02;23.00;99.90
8002;DHT22;4046;48.774;8.732;2022-11-15T15:20:28;23.00;99.90
8002;DHT22;4046;48.774;8.732;2022-11-15T15:22:55;23.00;99.90
8002;DHT22;4046;48.774;8.732;2022-11-15T15:25:31;23.00;99.90
8002;DHT22;4046;48.774;8.732;2022-11-15T15:27:59;23.00;99.90
8002;DHT22;4046;48.774;8.732;2022-11-15T15:30:27;23.00;99.90
8002;DHT22;4046;48.774;8.732;2022-11-15T15:32:54;23.00;99.90
8002;DHT22;4046;48.774;8.732;2022-11-15T15:35:20;23.00;99.90
8002;DHT22;4046;48.774;8.732;2022-11-15T15:37:48;23.00;99.90
8002;DHT22;4046;48.774;8.732;2022-11-15T15:40:17;23.00;99.90
8002;DHT22;4046;48.774;8.732;2022-11-15T15:42:44;23.00;99.90
8002;DHT22;4046;48.774;8.732;2022-11-15T15:45:10;23.00;99.90
8002;DHT22;4046;48.774;8.732;2022-11-15T15:47:37;23.00;99.90
8002;DHT22;4046;48.774;8.732;2022-11-15T15:50:27;23.00;99.90
8002;DHT22;4046;48.774;8.732;2022-11-15T15:52:52;23.00;99.90
8002;DHT22;4046;48.774;8.732;2022-11-15T15:55:19;23.00;99.90
8002;DHT22;4046;48.774;8.732;2022-11-15T15:57:45;23.00;99.90
8002;DHT22;4046;48.774;8.732;2022-11-15T16:00:12;23.00;99.90
8002;DHT22;4046;48.774;8.732;2022-11-15T16:02:39;23.00;99.90
8002;DHT22;4046;48.774;8.732;2022-11-15T16:05:07;23.00;99.90
8002;DHT22;4046;48.774;8.732;2022-11-15T16:07:33;23.00;99.90
8002;DHT22;4046;48.774;8.732;2022-11-15T16:09:59;23.00;99.90
8002;DHT22;4046;48.774;8.732;2022-11-15T16:12:30;23.00;99.90
8002;DHT22;4046;48.774;8.732;2022-11-15T16:14:56;23.00;99.90
8002;DHT22;4046;48.774;8.732;2022-11-15T16:17:26;23.00;99.90
8002;DHT22;4046;48.774;8.732;2022-11-15T16:19:52;22.90;99.90
8002;DHT22;4046;48.774;8.732;2022-11-15T16:22:19;22.90;99.90
8002;DHT22;4046;48.774;8.732;2022-11-15T16:24:45;22.90;99.90
8002;DHT22;4046;48.774;8.732;2022-11-15T16:27:19;22.90;99.90
8002;DHT22;4046;48.774;8.732;2022-11-15T16:29:46;22.90;99.90
8002;DHT22;4046;48.774;8.732;2022-11-15T16:32:13;22.90;99.90
8002;DHT22;4046;48.774;8.732;2022-11-15T16:34:39;22.90;99.90
8002;DHT22;4046;48.774;8.732;2022-11-15T16:37:08;22.90;99.90
8002;DHT22;4046;48.774;8.732;2022-11-15T16:39:38;22.90;99.90
8002;DHT22;4046;48.774;8.732;2022-11-15T16:42:04;22.90;99.90
8002;DHT22;4046;48.774;8.732;2022-11-15T16:44:30;22.90;99.90
8002;DHT22;4046;48.774;8.732;2022-11-15T16:46:56;22.90;99.90
8002;DHT22;4046;48.774;8.732;2022-11-15T16:49:23;22.90;99.90
8002;DHT22;4046;48.774;8.732;2022-11-15T16:51:49;22.90;99.90
8002;DHT22;4046;48.774;8.732;2022-11-15T16:54:16;22.90;99.90
8002;DHT22;4046;48.774;8.732;2022-11-15T16:56:42;22.90;99.90
8002;DHT22;4046;48.774;8.732;2022-11-15T16:59:14;22.90;99.90
8002;DHT22;4046;48.774;8.732;2022-11-15T17:01:42;22.90;99.90
8002;DHT22;4046;48.774;8.732;2022-11-15T17:04:18;22.90;99.90
8002;DHT22;4046;48.774;8.732;2022-11-15T17:06:46;22.90;99.90
8002;DHT22;4046;48.774;8.732;2022-11-15T17:09:15;22.90;99.90
8002;DHT22;4046;48.774;8.732;2022-11-15T17:11:42;22.80;99.90
8002;DHT22;4046;48.774;8.732;2022-11-15T17:14:10;22.90;99.90
8002;DHT22;4046;48.774;8.732;2022-11-15T17:16:36;22.90;99.90
8002;DHT22;4046;48.774;8.732;2022-11-15T17:19:18;22.90;99.90
8002;DHT22;4046;48.774;8.732;2022-11-15T17:21:45;22.90;99.90
8002;DHT22;4046;48.774;8.732;2022-11-15T17:24:13;22.90;99.90
8002;DHT22;4046;48.774;8.732;2022-11-15T17:26:39;22.90;99.90
8002;DHT22;4046;48.774;8.732;2022-11-15T17:29:05;22.90;99.90
8002;DHT22;4046;48.774;8.732;2022-11-15T17:31:35;22.90;99.90
8002;DHT22;4046;48.774;8.732;2022-11-15T17:34:02;22.90;99.90
8002;DHT22;4046;48.774;8.732;2022-11-15T17:36:29;22.90;99.90
8002;DHT22;4046;48.774;8.732;2022-11-15T17:38:55;22.90;99.90
8002;DHT22;4046;48.774;8.732;2022-11-15T17:41:22;22.90;99.90
8002;DHT22;4046;48.774;8.732;2022-11-15T17:43:48;22.90;99.90
8002;DHT22;4046;48.774;8.732;2022-11-15T17:46:17;22.90;99.90
8002;DHT22;4046;48.774;8.732;2022-11-15T17:48:44;22.90;99.90
8002;DHT22;4046;48.774;8.732;2022-11-15T17:51:13;22.90;99.90
8002;DHT22;4046;48.774;8.732;2022-11-15T17:53:41;22.90;99.90
8002;DHT22;4046;48.774;8.732;2022-11-15T17:56:10;22.90;99.90
8002;DHT22;4046;48.774;8.732;2022-11-15T17:58:37;22.90;99.90
8002;DHT22;4046;48.774;8.732;2022-11-15T18:01:17;22.90;99.90
8002;DHT22;4046;48.774;8.732;2022-11-15T18:03:44;22.90;99.90
8002;DHT22;4046;48.774;8.732;2022-11-15T18:06:10;22.90;99.90
8002;DHT22;4046;48.774;8.732;2022-11-15T18:08:41;22.90;99.90
8002;DHT22;4046;48.774;8.732;2022-11-15T18:11:20;22.90;99.90
8002;DHT22;4046;48.774;8.732;2022-11-15T18:13:48;23.00;99.90
8002;DHT22;4046;48.774;8.732;2022-11-15T18:16:17;22.90;99.90